sensor_id;sensor_type;location;lat;lon;timestamp;pressure;altitude;pressure_sealevel;temperature;humidity
10946;BME280;5525;42.648;23.368;2024-01-16T00:02:16;93229.63;;;2.72;100.00
10946;BME280;5525;42.648;23.368;2024-01-16T00:04:44;93234.00;;;2.76;100.00
10946;BME280;5525;42.648;23.368;2024-01-16T00:07:11;93238.28;;;2.86;100.00
10946;BME280;5525;42.648;23.368;2024-01-16T00:09:38;93262.53;;;2.76;100.00
10946;BME280;5525;42.648;23.368;2024-01-16T00:12:05;93248.09;;;2.60;100.00
10946;BME280;5525;42.648;23.368;2024-01-16T00:14:35;93252.94;;;2.66;100.00
10946;BME280;5525;42.648;23.368;2024-01-16T00:17:02;93245.72;;;2.58;100.00
10946;BME280;5525;42.648;23.368;2024-01-16T00:19:29;93259.00;;;2.50;100.00
10946;BME280;5525;42.648;23.368;2024-01-16T00:21:57;93257.03;;;2.72;100.00
10946;BME280;5525;42.648;23.368;2024-01-16T00:24:25;93229.34;;;2.99;100.00
10946;BME280;5525;42.648;23.368;2024-01-16T00:26:52;93249.72;;;2.95;100.00
10946;BME280;5525;42.648;23.368;2024-01-16T00:29:19;93250.97;;;2.97;100.00
10946;BME280;5525;42.648;23.368;2024-01-16T00:31:46;93260.56;;;3.07;100.00
10946;BME280;5525;42.648;23.368;2024-01-16T00:34:12;93252.84;;;2.97;100.00
10946;BME280;5525;42.648;23.368;2024-01-16T00:36:39;93253.69;;;3.14;100.00
10946;BME280;5525;42.648;23.368;2024-01-16T00:39:07;93275.91;;;3.01;100.00
10946;BME280;5525;42.648;23.368;2024-01-16T00:41:33;93239.09;;;3.12;100.00
10946;BME280;5525;42.648;23.368;2024-01-16T00:44:00;93259.59;;;3.03;100.00
10946;BME280;5525;42.648;23.368;2024-01-16T00:46:27;93274.72;;;3.33;100.00
10946;BME280;5525;42.648;23.368;2024-01-16T00:48:54;93276.31;;;3.42;100.00
10946;BME280;5525;42.648;23.368;2024-01-16T00:51:21;93268.47;;;3.55;100.00
10946;BME280;5525;42.648;23.368;2024-01-16T00:53:48;93271.91;;;3.38;100.00
10946;BME280;5525;42.648;23.368;2024-01-16T00:56:16;93286.66;;;3.27;100.00
10946;BME280;5525;42.648;23.368;2024-01-16T00:58:42;93285.06;;;3.09;100.00
10946;BME280;5525;42.648;23.368;2024-01-16T01:01:08;93282.06;;;3.19;100.00
10946;BME280;5525;42.648;23.368;2024-01-16T01:03:35;93305.94;;;3.32;100.00
10946;BME280;5525;42.648;23.368;2024-01-16T01:06:02;93313.34;;;3.53;100.00
10946;BME280;5525;42.648;23.368;2024-01-16T01:08:29;93305.19;;;3.66;100.00
10946;BME280;5525;42.648;23.368;2024-01-16T01:10:55;93304.72;;;3.81;100.00
10946;BME280;5525;42.648;23.368;2024-01-16T01:13:24;93307.22;;;3.61;100.00
10946;BME280;5525;42.648;23.368;2024-01-16T01:15:51;93280.53;;;3.69;100.00
10946;BME280;5525;42.648;23.368;2024-01-16T01:18:29;93296.72;;;3.73;100.00
10946;BME280;5525;42.648;23.368;2024-01-16T01:20:58;93295.75;;;3.77;100.00
10946;BME280;5525;42.648;23.368;2024-01-16T01:23:25;93294.06;;;3.81;100.00
10946;BME280;5525;42.648;23.368;2024-01-16T01:25:52;93319.31;;;3.67;100.00
10946;BME280;5525;42.648;23.368;2024-01-16T01:28:18;93312.56;;;3.61;100.00
10946;BME280;5525;42.648;23.368;2024-01-16T01:30:47;93292.34;;;3.77;100.00
10946;BME280;5525;42.648;23.368;2024-01-16T01:33:14;93297.50;;;3.82;100.00
10946;BME280;5525;42.648;23.368;2024-01-16T01:35:41;93281.47;;;3.82;100.00
10946;BME280;5525;42.648;23.368;2024-01-16T01:38:07;93280.41;;;3.83;100.00
10946;BME280;5525;42.648;23.368;2024-01-16T01:40:34;93278.81;;;3.90;100.00
10946;BME280;5525;42.648;23.368;2024-01-16T01:43:22;93293.88;;;3.95;100.00
10946;BME280;5525;42.648;23.368;2024-01-16T01:46:08;93290.28;;;3.82;100.00
10946;BME280;5525;42.648;23.368;2024-01-16T01:48:36;93281.34;;;3.78;100.00
10946;BME280;5525;42.648;23.368;2024-01-16T01:51:04;93283.22;;;3.78;100.00
10946;BME280;5525;42.648;23.368;2024-01-16T01:53:32;93272.69;;;3.90;100.00
10946;BME280;5525;42.648;23.368;2024-01-16T01:56:03;93301.56;;;4.05;100.00
10946;BME280;5525;42.648;23.368;2024-01-16T01:58:31;93291.16;;;4.20;100.00
10946;BME280;5525;42.648;23.368;2024-01-16T02:00:58;93286.47;;;4.26;100.00
10946;BME280;5525;42.648;23.368;2024-01-16T02:03:27;93287.34;;;4.38;100.00
10946;BME280;5525;42.648;23.368;2024-01-16T02:05:56;93292.22;;;4.45;100.00
10946;BME280;5525;42.648;23.368;2024-01-16T02:08:23;93272.25;;;4.42;100.00
10946;BME280;5525;42.648;23.368;2024-01-16T02:10:50;93275.91;;;4.38;100.00
10946;BME280;5525;42.648;23.368;2024-01-16T02:13:19;93303.34;;;4.55;100.00
10946;BME280;5525;42.648;23.368;2024-01-16T02:15:49;93306.53;;;4.40;100.00
10946;BME280;5525;42.648;23.368;2024-01-16T02:18:16;93289.69;;;4.48;100.00
10946;BME280;5525;42.648;23.368;2024-01-16T02:20:45;93308.25;;;4.45;100.00
10946;BME280;5525;42.648;23.368;2024-01-16T02:23:13;93304.94;;;4.48;100.00
10946;BME280;5525;42.648;23.368;2024-01-16T02:25:43;93291.47;;;4.27;100.00
10946;BME280;5525;42.648;23.368;2024-01-16T02:28:10;93315.22;;;4.29;100.00
10946;BME280;5525;42.648;23.368;2024-01-16T02:30:37;93311.63;;;3.91;100.00
10946;BME280;5525;42.648;23.368;2024-01-16T02:33:04;93299.81;;;4.17;100.00
10946;BME280;5525;42.648;23.368;2024-01-16T02:35:31;93316.44;;;4.31;100.00
10946;BME280;5525;42.648;23.368;2024-01-16T02:37:57;93323.00;;;4.51;100.00
10946;BME280;5525;42.648;23.368;2024-01-16T02:40:25;93323.63;;;4.48;100.00
10946;BME280;5525;42.648;23.368;2024-01-16T02:42:54;93320.97;;;4.48;100.00
10946;BME280;5525;42.648;23.368;2024-01-16T02:45:21;93331.97;;;4.55;100.00
10946;BME280;5525;42.648;23.368;2024-01-16T02:47:48;93333.31;;;4.69;100.00
10946;BME280;5525;42.648;23.368;2024-01-16T02:50:14;93341.19;;;4.74;100.00
10946;BME280;5525;42.648;23.368;2024-01-16T02:52:41;93341.81;;;4.71;100.00
10946;BME280;5525;42.648;23.368;2024-01-16T02:55:08;93350.28;;;4.82;100.00
10946;BME280;5525;42.648;23.368;2024-01-16T02:57:35;93349.34;;;4.78;100.00
10946;BME280;5525;42.648;23.368;2024-01-16T03:00:04;93382.84;;;4.84;100.00
10946;BME280;5525;42.648;23.368;2024-01-16T03:02:33;93401.22;;;4.85;100.00
10946;BME280;5525;42.648;23.368;2024-01-16T03:04:59;93420.75;;;4.77;100.00
10946;BME280;5525;42.648;23.368;2024-01-16T03:07:26;93422.00;;;4.80;100.00
10946;BME280;5525;42.648;23.368;2024-01-16T03:09:53;93421.19;;;4.88;100.00
10946;BME280;5525;42.648;23.368;2024-01-16T03:12:20;93413.81;;;4.85;100.00
10946;BME280;5525;42.648;23.368;2024-01-16T03:14:47;93425.44;;;4.89;100.00
10946;BME280;5525;42.648;23.368;2024-01-16T03:17:15;93431.59;;;4.81;100.00
10946;BME280;5525;42.648;23.368;2024-01-16T03:19:42;93445.59;;;4.69;100.00
10946;BME280;5525;42.648;23.368;2024-01-16T03:22:09;93462.13;;;4.63;100.00
10946;BME280;5525;42.648;23.368;2024-01-16T03:24:36;93469.84;;;4.56;100.00
10946;BME280;5525;42.648;23.368;2024-01-16T03:27:03;93482.09;;;4.48;100.00
10946;BME280;5525;42.648;23.368;2024-01-16T03:29:30;93486.81;;;4.34;100.00
10946;BME280;5525;42.648;23.368;2024-01-16T03:31:58;93482.69;;;4.11;100.00
10946;BME280;5525;42.648;23.368;2024-01-16T03:34:27;93489.63;;;4.21;100.00
10946;BME280;5525;42.648;23.368;2024-01-16T03:36:54;93489.31;;;4.22;100.00
10946;BME280;5525;42.648;23.368;2024-01-16T03:39:21;93490.44;;;4.21;100.00
10946;BME280;5525;42.648;23.368;2024-01-16T03:41:48;93511.31;;;4.28;100.00
10946;BME280;5525;42.648;23.368;2024-01-16T03:44:14;93510.84;;;4.26;100.00
10946;BME280;5525;42.648;23.368;2024-01-16T03:46:41;93516.00;;;4.05;100.00
10946;BME280;5525;42.648;23.368;2024-01-16T03:49:08;93535.63;;;4.09;100.00
10946;BME280;5525;42.648;23.368;2024-01-16T03:51:36;93538.28;;;4.01;100.00
10946;BME280;5525;42.648;23.368;2024-01-16T03:54:03;93534.66;;;3.97;100.00
10946;BME280;5525;42.648;23.368;2024-01-16T03:56:30;93555.69;;;3.90;100.00
10946;BME280;5525;42.648;23.368;2024-01-16T03:58:56;93559.88;;;3.74;100.00
10946;BME280;5525;42.648;23.368;2024-01-16T04:01:30;93564.75;;;3.80;100.00
10946;BME280;5525;42.648;23.368;2024-01-16T04:03:57;93578.38;;;3.70;100.00
10946;BME280;5525;42.648;23.368;2024-01-16T04:06:24;93582.63;;;3.71;100.00
10946;BME280;5525;42.648;23.368;2024-01-16T04:08:53;93588.25;;;3.70;100.00
10946;BME280;5525;42.648;23.368;2024-01-16T04:11:19;93597.38;;;3.69;100.00
10946;BME280;5525;42.648;23.368;2024-01-16T04:13:46;93601.28;;;3.63;100.00
10946;BME280;5525;42.648;23.368;2024-01-16T04:16:13;93613.19;;;3.57;100.00
10946;BME280;5525;42.648;23.368;2024-01-16T04:18:41;93616.88;;;3.47;100.00
10946;BME280;5525;42.648;23.368;2024-01-16T04:21:08;93612.88;;;3.36;100.00
10946;BME280;5525;42.648;23.368;2024-01-16T04:23:35;93615.56;;;3.36;100.00
10946;BME280;5525;42.648;23.368;2024-01-16T04:26:03;93623.66;;;3.31;100.00
10946;BME280;5525;42.648;23.368;2024-01-16T04:28:30;93614.63;;;3.18;100.00
10946;BME280;5525;42.648;23.368;2024-01-16T04:30:57;93639.31;;;3.24;100.00
10946;BME280;5525;42.648;23.368;2024-01-16T04:33:24;93635.81;;;3.15;100.00
10946;BME280;5525;42.648;23.368;2024-01-16T04:35:50;93629.06;;;3.17;100.00
10946;BME280;5525;42.648;23.368;2024-01-16T04:38:17;93639.25;;;3.15;100.00
10946;BME280;5525;42.648;23.368;2024-01-16T04:40:44;93644.22;;;3.08;100.00
10946;BME280;5525;42.648;23.368;2024-01-16T04:43:11;93658.34;;;3.09;100.00
10946;BME280;5525;42.648;23.368;2024-01-16T04:45:38;93663.84;;;3.12;100.00
10946;BME280;5525;42.648;23.368;2024-01-16T04:48:05;93670.38;;;3.06;100.00
10946;BME280;5525;42.648;23.368;2024-01-16T04:50:32;93671.38;;;3.10;100.00
10946;BME280;5525;42.648;23.368;2024-01-16T04:52:59;93687.19;;;3.07;100.00
10946;BME280;5525;42.648;23.368;2024-01-16T04:55:26;93685.31;;;3.07;100.00
10946;BME280;5525;42.648;23.368;2024-01-16T04:57:54;93695.19;;;3.07;100.00
10946;BME280;5525;42.648;23.368;2024-01-16T05:00:22;93706.06;;;2.97;100.00
10946;BME280;5525;42.648;23.368;2024-01-16T05:02:52;93716.66;;;2.88;100.00
10946;BME280;5525;42.648;23.368;2024-01-16T05:05:19;93714.38;;;2.82;100.00
10946;BME280;5525;42.648;23.368;2024-01-16T05:07:46;93698.41;;;2.68;100.00
10946;BME280;5525;42.648;23.368;2024-01-16T05:10:13;93704.72;;;2.72;100.00
10946;BME280;5525;42.648;23.368;2024-01-16T05:12:40;93731.78;;;2.66;100.00
10946;BME280;5525;42.648;23.368;2024-01-16T05:15:08;93734.75;;;2.64;100.00
10946;BME280;5525;42.648;23.368;2024-01-16T05:17:38;93744.03;;;2.67;100.00
10946;BME280;5525;42.648;23.368;2024-01-16T05:20:05;93747.28;;;2.64;100.00
10946;BME280;5525;42.648;23.368;2024-01-16T05:22:32;93753.28;;;2.69;100.00
10946;BME280;5525;42.648;23.368;2024-01-16T05:24:59;93768.09;;;2.75;100.00
10946;BME280;5525;42.648;23.368;2024-01-16T05:27:26;93762.75;;;2.75;100.00
10946;BME280;5525;42.648;23.368;2024-01-16T05:29:53;93759.13;;;2.71;100.00
10946;BME280;5525;42.648;23.368;2024-01-16T05:32:20;93782.00;;;2.72;100.00
10946;BME280;5525;42.648;23.368;2024-01-16T05:34:48;93774.31;;;2.71;100.00
10946;BME280;5525;42.648;23.368;2024-01-16T05:37:15;93780.34;;;2.63;100.00
10946;BME280;5525;42.648;23.368;2024-01-16T05:39:42;93794.44;;;2.63;100.00
10946;BME280;5525;42.648;23.368;2024-01-16T05:42:09;93787.03;;;2.60;100.00
10946;BME280;5525;42.648;23.368;2024-01-16T05:44:36;93803.53;;;2.62;100.00
10946;BME280;5525;42.648;23.368;2024-01-16T05:47:04;93815.16;;;2.66;100.00
10946;BME280;5525;42.648;23.368;2024-01-16T05:49:31;93820.03;;;2.64;100.00
10946;BME280;5525;42.648;23.368;2024-01-16T05:51:59;93841.34;;;2.64;100.00
10946;BME280;5525;42.648;23.368;2024-01-16T05:54:27;93843.13;;;2.69;100.00
10946;BME280;5525;42.648;23.368;2024-01-16T05:56:54;93848.63;;;2.72;100.00
10946;BME280;5525;42.648;23.368;2024-01-16T05:59:20;93858.09;;;2.65;100.00
10946;BME280;5525;42.648;23.368;2024-01-16T06:01:47;93859.69;;;2.66;100.00
10946;BME280;5525;42.648;23.368;2024-01-16T06:04:14;93878.44;;;2.61;100.00
10946;BME280;5525;42.648;23.368;2024-01-16T06:06:41;93872.53;;;2.64;100.00
10946;BME280;5525;42.648;23.368;2024-01-16T06:09:12;93886.13;;;2.62;100.00
10946;BME280;5525;42.648;23.368;2024-01-16T06:11:39;93891.25;;;2.59;100.00
10946;BME280;5525;42.648;23.368;2024-01-16T06:14:07;93894.72;;;2.59;100.00
10946;BME280;5525;42.648;23.368;2024-01-16T06:16:37;93898.25;;;2.55;100.00
10946;BME280;5525;42.648;23.368;2024-01-16T06:19:07;93904.56;;;2.59;100.00
10946;BME280;5525;42.648;23.368;2024-01-16T06:21:34;93912.13;;;2.70;100.00
10946;BME280;5525;42.648;23.368;2024-01-16T06:24:00;93917.59;;;2.60;100.00
10946;BME280;5525;42.648;23.368;2024-01-16T06:26:28;93926.31;;;2.66;100.00
10946;BME280;5525;42.648;23.368;2024-01-16T06:28:56;93917.53;;;2.65;100.00
10946;BME280;5525;42.648;23.368;2024-01-16T06:31:23;93936.25;;;2.60;100.00
10946;BME280;5525;42.648;23.368;2024-01-16T06:33:51;93943.38;;;2.65;100.00
10946;BME280;5525;42.648;23.368;2024-01-16T06:36:18;93960.47;;;2.64;100.00
10946;BME280;5525;42.648;23.368;2024-01-16T06:38:45;93961.97;;;2.83;100.00
10946;BME280;5525;42.648;23.368;2024-01-16T06:41:11;93964.34;;;2.85;100.00
10946;BME280;5525;42.648;23.368;2024-01-16T06:43:40;93981.22;;;2.80;100.00
10946;BME280;5525;42.648;23.368;2024-01-16T06:46:06;93974.69;;;2.73;100.00
10946;BME280;5525;42.648;23.368;2024-01-16T06:48:34;93987.41;;;2.62;100.00
10946;BME280;5525;42.648;23.368;2024-01-16T06:51:02;93994.53;;;2.48;100.00
10946;BME280;5525;42.648;23.368;2024-01-16T06:53:28;94014.47;;;2.51;100.00
10946;BME280;5525;42.648;23.368;2024-01-16T06:55:55;94011.03;;;2.50;100.00
10946;BME280;5525;42.648;23.368;2024-01-16T06:58:22;94017.94;;;2.33;100.00
10946;BME280;5525;42.648;23.368;2024-01-16T07:00:50;94024.13;;;2.47;100.00
10946;BME280;5525;42.648;23.368;2024-01-16T07:03:17;94028.81;;;2.36;100.00
10946;BME280;5525;42.648;23.368;2024-01-16T07:05:44;94038.69;;;2.36;100.00
10946;BME280;5525;42.648;23.368;2024-01-16T07:08:10;94033.63;;;2.34;100.00
10946;BME280;5525;42.648;23.368;2024-01-16T07:10:37;94028.25;;;2.39;100.00
10946;BME280;5525;42.648;23.368;2024-01-16T07:13:04;94035.16;;;2.40;100.00
10946;BME280;5525;42.648;23.368;2024-01-16T07:15:32;94052.56;;;2.33;100.00
10946;BME280;5525;42.648;23.368;2024-01-16T07:18:00;94060.34;;;2.29;100.00
10946;BME280;5525;42.648;23.368;2024-01-16T07:20:27;94070.50;;;2.27;100.00
10946;BME280;5525;42.648;23.368;2024-01-16T07:22:54;94080.69;;;2.20;100.00
10946;BME280;5525;42.648;23.368;2024-01-16T07:25:21;94086.41;;;2.32;100.00
10946;BME280;5525;42.648;23.368;2024-01-16T07:27:47;94086.41;;;2.32;100.00
10946;BME280;5525;42.648;23.368;2024-01-16T07:30:15;94087.06;;;2.24;100.00
10946;BME280;5525;42.648;23.368;2024-01-16T07:32:42;94097.34;;;2.31;100.00
10946;BME280;5525;42.648;23.368;2024-01-16T07:35:10;94093.91;;;2.30;100.00
10946;BME280;5525;42.648;23.368;2024-01-16T07:37:37;94103.03;;;2.24;100.00
10946;BME280;5525;42.648;23.368;2024-01-16T07:40:04;94110.44;;;2.27;100.00
10946;BME280;5525;42.648;23.368;2024-01-16T07:42:32;94107.50;;;2.29;100.00
10946;BME280;5525;42.648;23.368;2024-01-16T07:45:00;94117.88;;;2.30;100.00
10946;BME280;5525;42.648;23.368;2024-01-16T07:47:29;94118.53;;;2.41;100.00
10946;BME280;5525;42.648;23.368;2024-01-16T07:49:56;94123.28;;;2.44;100.00
10946;BME280;5525;42.648;23.368;2024-01-16T07:52:24;94113.78;;;2.38;100.00
10946;BME280;5525;42.648;23.368;2024-01-16T07:54:51;94129.41;;;2.44;100.00
10946;BME280;5525;42.648;23.368;2024-01-16T07:57:18;94119.47;;;2.50;100.00
10946;BME280;5525;42.648;23.368;2024-01-16T07:59:44;94143.06;;;2.61;100.00
10946;BME280;5525;42.648;23.368;2024-01-16T08:02:11;94150.47;;;2.64;100.00
10946;BME280;5525;42.648;23.368;2024-01-16T08:04:38;94155.13;;;2.72;100.00
10946;BME280;5525;42.648;23.368;2024-01-16T08:07:05;94163.03;;;2.59;100.00
10946;BME280;5525;42.648;23.368;2024-01-16T08:09:33;94173.22;;;2.75;100.00
10946;BME280;5525;42.648;23.368;2024-01-16T08:12:00;94175.75;;;2.85;100.00
10946;BME280;5525;42.648;23.368;2024-01-16T08:14:28;94163.88;;;2.78;100.00
10946;BME280;5525;42.648;23.368;2024-01-16T08:16:55;94175.75;;;2.85;100.00
10946;BME280;5525;42.648;23.368;2024-01-16T08:19:22;94188.34;;;2.98;100.00
10946;BME280;5525;42.648;23.368;2024-01-16T08:21:48;94195.50;;;2.84;100.00
10946;BME280;5525;42.648;23.368;2024-01-16T08:24:15;94203.06;;;2.77;100.00
10946;BME280;5525;42.648;23.368;2024-01-16T08:26:43;94193.25;;;2.73;100.00
10946;BME280;5525;42.648;23.368;2024-01-16T08:29:10;94212.47;;;2.70;100.00
10946;BME280;5525;42.648;23.368;2024-01-16T08:31:37;94196.72;;;2.73;100.00
10946;BME280;5525;42.648;23.368;2024-01-16T08:34:03;94205.19;;;2.75;100.00
10946;BME280;5525;42.648;23.368;2024-01-16T08:36:30;94202.72;;;3.02;100.00
10946;BME280;5525;42.648;23.368;2024-01-16T08:38:58;94226.00;;;3.15;100.00
10946;BME280;5525;42.648;23.368;2024-01-16T08:41:25;94224.06;;;3.02;100.00
10946;BME280;5525;42.648;23.368;2024-01-16T08:43:53;94225.03;;;2.88;100.00
10946;BME280;5525;42.648;23.368;2024-01-16T08:46:19;94231.56;;;2.77;100.00
10946;BME280;5525;42.648;23.368;2024-01-16T08:48:46;94234.09;;;2.68;100.00
10946;BME280;5525;42.648;23.368;2024-01-16T08:51:13;94237.44;;;2.55;100.00
10946;BME280;5525;42.648;23.368;2024-01-16T08:53:40;94247.94;;;2.47;100.00
10946;BME280;5525;42.648;23.368;2024-01-16T08:56:07;94250.34;;;2.43;100.00
10946;BME280;5525;42.648;23.368;2024-01-16T08:58:34;94258.59;;;2.47;100.00
10946;BME280;5525;42.648;23.368;2024-01-16T09:01:04;94260.44;;;2.46;100.00
10946;BME280;5525;42.648;23.368;2024-01-16T09:03:31;94277.28;;;2.42;100.00
10946;BME280;5525;42.648;23.368;2024-01-16T09:05:59;94272.06;;;2.32;100.00
10946;BME280;5525;42.648;23.368;2024-01-16T09:08:26;94273.63;;;2.38;100.00
10946;BME280;5525;42.648;23.368;2024-01-16T09:10:53;94272.06;;;2.32;100.00
10946;BME280;5525;42.648;23.368;2024-01-16T09:13:20;94271.50;;;2.35;100.00
10946;BME280;5525;42.648;23.368;2024-01-16T09:15:48;94277.25;;;2.47;100.00
10946;BME280;5525;42.648;23.368;2024-01-16T09:18:17;94282.47;;;2.57;100.00
10946;BME280;5525;42.648;23.368;2024-01-16T09:20:44;94271.69;;;2.67;100.00
10946;BME280;5525;42.648;23.368;2024-01-16T09:23:11;94276.97;;;2.72;100.00
10946;BME280;5525;42.648;23.368;2024-01-16T09:25:38;94280.81;;;2.84;100.00
10946;BME280;5525;42.648;23.368;2024-01-16T09:28:04;94285.34;;;2.84;100.00
10946;BME280;5525;42.648;23.368;2024-01-16T09:30:31;94276.34;;;2.98;100.00
10946;BME280;5525;42.648;23.368;2024-01-16T09:32:58;94291.66;;;3.11;100.00
10946;BME280;5525;42.648;23.368;2024-01-16T09:35:27;94292.44;;;2.93;100.00
10946;BME280;5525;42.648;23.368;2024-01-16T09:37:53;94295.03;;;2.98;100.00
10946;BME280;5525;42.648;23.368;2024-01-16T09:40:20;94281.09;;;3.25;100.00
10946;BME280;5525;42.648;23.368;2024-01-16T09:42:47;94273.66;;;3.40;100.00
10946;BME280;5525;42.648;23.368;2024-01-16T09:45:19;94278.25;;;3.72;100.00
10946;BME280;5525;42.648;23.368;2024-01-16T09:47:47;94285.88;;;3.97;100.00
10946;BME280;5525;42.648;23.368;2024-01-16T09:50:16;94289.63;;;3.96;100.00
10946;BME280;5525;42.648;23.368;2024-01-16T09:52:45;94292.69;;;4.22;100.00
10946;BME280;5525;42.648;23.368;2024-01-16T09:55:12;94295.59;;;4.07;100.00
10946;BME280;5525;42.648;23.368;2024-01-16T09:57:40;94280.47;;;4.48;100.00
10946;BME280;5525;42.648;23.368;2024-01-16T10:00:09;94291.75;;;4.58;100.00
10946;BME280;5525;42.648;23.368;2024-01-16T10:02:38;94284.44;;;4.91;100.00
10946;BME280;5525;42.648;23.368;2024-01-16T10:05:07;94282.19;;;4.98;100.00
10946;BME280;5525;42.648;23.368;2024-01-16T10:07:35;94284.25;;;4.87;100.00
10946;BME280;5525;42.648;23.368;2024-01-16T10:10:06;94286.72;;;4.97;100.00
10946;BME280;5525;42.648;23.368;2024-01-16T10:12:37;94284.13;;;5.33;100.00
10946;BME280;5525;42.648;23.368;2024-01-16T10:15:05;94291.88;;;5.07;100.00
10946;BME280;5525;42.648;23.368;2024-01-16T10:17:37;94288.41;;;4.80;100.00
10946;BME280;5525;42.648;23.368;2024-01-16T10:20:05;94286.38;;;4.45;100.00
10946;BME280;5525;42.648;23.368;2024-01-16T10:22:32;94290.78;;;5.08;100.00
10946;BME280;5525;42.648;23.368;2024-01-16T10:25:08;94295.44;;;5.30;100.00
10946;BME280;5525;42.648;23.368;2024-01-16T10:27:35;94298.94;;;4.76;100.00
10946;BME280;5525;42.648;23.368;2024-01-16T10:30:03;94292.09;;;4.97;100.00
10946;BME280;5525;42.648;23.368;2024-01-16T10:32:33;94281.00;;;5.04;100.00
10946;BME280;5525;42.648;23.368;2024-01-16T10:35:05;94298.22;;;5.25;100.00
10946;BME280;5525;42.648;23.368;2024-01-16T10:37:40;94294.09;;;4.92;100.00
10946;BME280;5525;42.648;23.368;2024-01-16T10:40:10;94297.63;;;5.14;100.00
10946;BME280;5525;42.648;23.368;2024-01-16T10:42:40;94301.09;;;5.29;100.00
10946;BME280;5525;42.648;23.368;2024-01-16T10:45:07;94313.66;;;5.42;100.00
10946;BME280;5525;42.648;23.368;2024-01-16T10:47:35;94309.88;;;5.29;100.00
10946;BME280;5525;42.648;23.368;2024-01-16T10:50:04;94313.00;;;5.22;100.00
10946;BME280;5525;42.648;23.368;2024-01-16T10:52:33;94309.72;;;5.26;100.00
10946;BME280;5525;42.648;23.368;2024-01-16T10:55:03;94311.00;;;5.77;100.00
10946;BME280;5525;42.648;23.368;2024-01-16T10:57:32;94308.84;;;6.01;100.00
10946;BME280;5525;42.648;23.368;2024-01-16T11:00:03;94299.91;;;6.06;100.00
10946;BME280;5525;42.648;23.368;2024-01-16T11:02:39;94293.47;;;6.07;100.00
10946;BME280;5525;42.648;23.368;2024-01-16T11:05:10;94298.75;;;5.98;100.00
10946;BME280;5525;42.648;23.368;2024-01-16T11:07:40;94306.72;;;5.90;97.53
10946;BME280;5525;42.648;23.368;2024-01-16T11:10:08;94324.28;;;6.40;96.85
10946;BME280;5525;42.648;23.368;2024-01-16T11:12:38;94319.66;;;6.32;96.41
10946;BME280;5525;42.648;23.368;2024-01-16T11:15:07;94308.94;;;6.32;93.21
10946;BME280;5525;42.648;23.368;2024-01-16T11:17:36;94320.50;;;6.41;90.25
10946;BME280;5525;42.648;23.368;2024-01-16T11:20:04;94327.50;;;6.50;92.25
10946;BME280;5525;42.648;23.368;2024-01-16T11:22:36;94323.63;;;6.34;94.16
10946;BME280;5525;42.648;23.368;2024-01-16T11:25:07;94317.16;;;6.13;100.00
10946;BME280;5525;42.648;23.368;2024-01-16T11:27:37;94310.66;;;6.58;95.37
10946;BME280;5525;42.648;23.368;2024-01-16T11:30:05;94321.69;;;6.57;96.42
10946;BME280;5525;42.648;23.368;2024-01-16T11:32:34;94320.84;;;6.70;97.02
10946;BME280;5525;42.648;23.368;2024-01-16T11:35:03;94324.38;;;5.91;100.00
10946;BME280;5525;42.648;23.368;2024-01-16T11:37:30;94316.41;;;5.99;100.00
10946;BME280;5525;42.648;23.368;2024-01-16T11:40:30;94321.72;;;6.35;100.00
10946;BME280;5525;42.648;23.368;2024-01-16T11:43:35;94332.09;;;5.92;100.00
10946;BME280;5525;42.648;23.368;2024-01-16T11:46:03;94317.47;;;5.76;100.00
10946;BME280;5525;42.648;23.368;2024-01-16T11:48:30;94333.81;;;5.75;100.00
10946;BME280;5525;42.648;23.368;2024-01-16T11:50:57;94324.88;;;5.93;100.00
10946;BME280;5525;42.648;23.368;2024-01-16T11:53:34;94329.38;;;5.84;100.00
10946;BME280;5525;42.648;23.368;2024-01-16T11:59:40;94341.91;;;5.48;100.00
10946;BME280;5525;42.648;23.368;2024-01-16T12:02:14;94336.34;;;5.58;100.00
10946;BME280;5525;42.648;23.368;2024-01-16T12:04:52;94336.84;;;5.33;100.00
10946;BME280;5525;42.648;23.368;2024-01-16T12:07:19;94339.34;;;5.78;100.00
10946;BME280;5525;42.648;23.368;2024-01-16T12:09:48;94347.78;;;5.99;100.00
10946;BME280;5525;42.648;23.368;2024-01-16T12:12:15;94359.16;;;5.28;100.00
10946;BME280;5525;42.648;23.368;2024-01-16T12:14:52;94363.22;;;5.53;100.00
10946;BME280;5525;42.648;23.368;2024-01-16T12:17:20;94367.72;;;5.30;100.00
10946;BME280;5525;42.648;23.368;2024-01-16T12:19:46;94372.91;;;4.67;100.00
10946;BME280;5525;42.648;23.368;2024-01-16T12:22:15;94365.66;;;4.81;100.00
10946;BME280;5525;42.648;23.368;2024-01-16T12:24:43;94357.97;;;4.93;100.00
10946;BME280;5525;42.648;23.368;2024-01-16T12:27:13;94365.00;;;5.03;100.00
10946;BME280;5525;42.648;23.368;2024-01-16T12:29:41;94366.31;;;5.19;100.00
10946;BME280;5525;42.648;23.368;2024-01-16T12:32:09;94371.34;;;4.93;100.00
10946;BME280;5525;42.648;23.368;2024-01-16T12:34:43;94376.41;;;4.95;100.00
10946;BME280;5525;42.648;23.368;2024-01-16T12:37:11;94376.19;;;4.91;100.00
10946;BME280;5525;42.648;23.368;2024-01-16T12:39:38;94366.00;;;4.93;100.00
10946;BME280;5525;42.648;23.368;2024-01-16T12:42:07;94370.34;;;4.89;100.00
10946;BME280;5525;42.648;23.368;2024-01-16T12:44:35;94376.66;;;4.80;100.00
10946;BME280;5525;42.648;23.368;2024-01-16T12:47:02;94382.59;;;4.77;100.00
10946;BME280;5525;42.648;23.368;2024-01-16T12:49:31;94392.25;;;4.46;100.00
10946;BME280;5525;42.648;23.368;2024-01-16T12:52:19;94391.16;;;4.47;100.00
10946;BME280;5525;42.648;23.368;2024-01-16T12:54:47;94391.81;;;4.39;100.00
10946;BME280;5525;42.648;23.368;2024-01-16T12:57:18;94388.72;;;4.32;100.00
10946;BME280;5525;42.648;23.368;2024-01-16T12:59:46;94375.78;;;4.20;100.00
10946;BME280;5525;42.648;23.368;2024-01-16T13:02:19;94381.19;;;4.34;100.00
10946;BME280;5525;42.648;23.368;2024-01-16T13:04:57;94387.03;;;5.27;100.00
10946;BME280;5525;42.648;23.368;2024-01-16T13:07:25;94386.63;;;5.20;100.00
10946;BME280;5525;42.648;23.368;2024-01-16T13:10:08;94388.13;;;5.40;100.00